createdAt,value
2023-02-24T00:02:29.572Z,101342.56
2023-02-24T00:05:02.371Z,101342.50
2023-02-24T00:07:35.016Z,101332.97
2023-02-24T00:10:09.561Z,101334.69
2023-02-24T00:12:43.749Z,101331.97
2023-02-24T00:15:16.820Z,101329.25
2023-02-24T00:17:49.460Z,101325.94
2023-02-24T00:20:22.126Z,101324.06
2023-02-24T00:22:54.740Z,101323.13
2023-02-24T00:25:27.483Z,101321.22
2023-02-24T00:28:01.796Z,101318.63
2023-02-24T00:30:34.561Z,101318.06
2023-02-24T00:33:07.335Z,101317.97
2023-02-24T00:35:40.031Z,101312.84
2023-02-24T00:38:13.407Z,101314.59
2023-02-24T00:40:46.070Z,101304.97
2023-02-24T00:43:18.681Z,101302.50
2023-02-24T00:45:51.782Z,101306.94
2023-02-24T00:48:29.673Z,101296.56
2023-02-24T00:51:02.193Z,101308.75
2023-02-24T00:53:34.678Z,101299.03
2023-02-24T00:56:12.173Z,101291.38
2023-02-24T00:58:45.049Z,101284.41
2023-02-24T01:01:25.272Z,101289.53
2023-02-24T01:04:00.187Z,101295.00
2023-02-24T01:06:34.278Z,101284.94
2023-02-24T01:09:14.645Z,101286.69
2023-02-24T01:12:01.810Z,101277.63
2023-02-24T01:14:36.126Z,101268.56
2023-02-24T01:17:08.800Z,101268.56
2023-02-24T01:19:42.972Z,101269.47
2023-02-24T01:22:18.159Z,101261.00
2023-02-24T01:24:50.910Z,101260.13
2023-02-24T01:27:23.559Z,101263.63
2023-02-24T01:29:56.103Z,101257.50
2023-02-24T01:32:31.945Z,101255.53
2023-02-24T01:35:05.140Z,101253.38
2023-02-24T01:37:39.279Z,101240.97
2023-02-24T01:40:18.687Z,101236.94
2023-02-24T01:42:51.705Z,101236.59
2023-02-24T01:45:29.853Z,101226.28
2023-02-24T01:48:08.067Z,101231.88
2023-02-24T01:50:40.637Z,101221.78
2023-02-24T01:53:13.806Z,101225.22
2023-02-24T01:55:51.314Z,101218.41
2023-02-24T01:58:28.555Z,101208.72
2023-02-24T02:01:06.388Z,101209.56
2023-02-24T02:03:42.183Z,101202.56
2023-02-24T02:06:17.726Z,101207.94
2023-02-24T02:08:51.240Z,101191.94
2023-02-24T02:11:24.064Z,101188.75
2023-02-24T02:13:56.998Z,101195.38
2023-02-24T02:16:47.871Z,101177.13
2023-02-24T02:19:38.609Z,101171.34
2023-02-24T02:22:14.065Z,101158.34
2023-02-24T02:24:56.802Z,101162.69
2023-02-24T02:27:41.155Z,101154.00
2023-02-24T02:30:47.383Z,101151.38
2023-02-24T02:34:01.680Z,101140.78
2023-02-24T02:37:11.989Z,101145.97
2023-02-24T02:40:18.880Z,101145.94
2023-02-24T02:43:09.264Z,101146.84
2023-02-24T02:45:47.654Z,101148.78
2023-02-24T02:48:27.428Z,101145.34
2023-02-24T02:51:19.701Z,101137.81
2023-02-24T02:54:05.153Z,101127.50
2023-02-24T02:56:47.155Z,101126.56
2023-02-24T02:59:27.618Z,101129.38
2023-02-24T03:02:14.669Z,101117.94
2023-02-24T03:04:57.649Z,101124.91
2023-02-24T03:07:40.305Z,101127.50
2023-02-24T03:10:22.909Z,101120.44
2023-02-24T03:13:01.389Z,101116.19
2023-02-24T03:15:34.609Z,101118.81
2023-02-24T03:18:22.455Z,101109.94
2023-02-24T03:21:07.729Z,101107.31
2023-02-24T03:23:51.828Z,101103.81
2023-02-24T03:26:52.931Z,101104.75
2023-02-24T03:29:48.464Z,101105.63
2023-02-24T03:32:33.734Z,101104.63
2023-02-24T03:35:17.023Z,101085.38
2023-02-24T03:37:50.667Z,101097.50
2023-02-24T03:40:35.888Z,101100.75
2023-02-24T03:43:28.069Z,101089.34
2023-02-24T03:46:01.444Z,101094.47
2023-02-24T03:48:43.865Z,101083.88
2023-02-24T03:51:23.381Z,101071.66
2023-02-24T03:54:16.642Z,101070.72
2023-02-24T03:57:56.329Z,101072.38
2023-02-24T04:00:40.019Z,101069.47
2023-02-24T04:04:09.055Z,101068.53
2023-02-24T04:06:57.968Z,101068.34
2023-02-24T04:09:47.480Z,101056.97
2023-02-24T04:12:29.721Z,101060.34
2023-02-24T04:15:18.118Z,101060.19
2023-02-24T04:17:58.611Z,101055.88
2023-02-24T04:20:36.325Z,101053.25
2023-02-24T04:23:16.774Z,101048.88
2023-02-24T04:25:53.457Z,101051.47
2023-02-24T04:28:29.883Z,101043.53
2023-02-24T04:31:10.641Z,101039.44
2023-02-24T04:33:44.360Z,101043.84
2023-02-24T04:36:22.102Z,101031.72
2023-02-24T04:38:55.543Z,101033.69
2023-02-24T04:41:28.096Z,101032.06
2023-02-24T04:44:01.665Z,101033.75
2023-02-24T04:46:34.267Z,101039.16
2023-02-24T04:49:06.889Z,101037.34
2023-02-24T04:51:43.391Z,101028.75
2023-02-24T04:54:17.561Z,101022.72
2023-02-24T04:56:52.141Z,101025.25
2023-02-24T04:59:25.094Z,101014.94
2023-02-24T05:02:01.458Z,101015.69
2023-02-24T05:04:38.783Z,101016.66
2023-02-24T05:07:12.935Z,101020.09
2023-02-24T05:09:47.742Z,101018.31
2023-02-24T05:12:21.172Z,101005.34
2023-02-24T05:14:54.680Z,101008.00
2023-02-24T05:17:29.158Z,100994.84
2023-02-24T05:20:20.543Z,100991.44
2023-02-24T05:22:53.437Z,100987.78
2023-02-24T05:25:26.696Z,100982.69
2023-02-24T05:27:59.379Z,100973.94
2023-02-24T05:30:32.741Z,100978.16
2023-02-24T05:33:08.040Z,100975.63
2023-02-24T05:35:40.733Z,100973.03
2023-02-24T05:38:14.041Z,100968.63
2023-02-24T05:40:47.748Z,100964.19
2023-02-24T05:43:20.361Z,100964.09
2023-02-24T05:45:53.004Z,100958.09
2023-02-24T05:48:25.513Z,100968.41
2023-02-24T05:50:59.661Z,100957.84
2023-02-24T05:53:32.403Z,100955.38
2023-02-24T05:56:05.902Z,100944.81
2023-02-24T05:58:39.312Z,100952.66
2023-02-24T06:01:16.548Z,100938.81
2023-02-24T06:03:49.208Z,100939.66
2023-02-24T06:06:23.144Z,100927.50
2023-02-24T06:08:57.688Z,100931.69
2023-02-24T06:11:30.306Z,100921.13
2023-02-24T06:14:06.972Z,100923.91
2023-02-24T06:16:43.331Z,100914.16
2023-02-24T06:19:17.591Z,100912.41
2023-02-24T06:21:52.641Z,100917.66
2023-02-24T06:24:26.977Z,100904.59
2023-02-24T06:27:09.711Z,100918.50
2023-02-24T06:29:42.340Z,100906.25
2023-02-24T06:32:14.955Z,100903.75
2023-02-24T06:34:47.681Z,100895.00
2023-02-24T06:37:22.933Z,100895.91
2023-02-24T06:39:58.265Z,100880.97
2023-02-24T06:42:30.892Z,100874.78
2023-02-24T06:45:04.205Z,100878.34
2023-02-24T06:47:37.891Z,100880.91
2023-02-24T06:50:12.373Z,100881.97
2023-02-24T06:52:45.925Z,100877.56
2023-02-24T06:55:27.564Z,100879.28
2023-02-24T06:58:05.033Z,100872.34
2023-02-24T07:00:40.406Z,100867.13
2023-02-24T07:03:17.720Z,100867.69
2023-02-24T07:06:10.846Z,100870.41
2023-02-24T07:08:44.028Z,100863.63
2023-02-24T07:11:19.943Z,100861.88
2023-02-24T07:13:54.533Z,100854.19
2023-02-24T07:16:28.889Z,100852.34
2023-02-24T07:19:11.303Z,100848.94
2023-02-24T07:21:50.197Z,100855.66
2023-02-24T07:24:25.507Z,100849.00
2023-02-24T07:27:07.887Z,100833.38
2023-02-24T07:29:40.521Z,100831.47
2023-02-24T07:32:13.902Z,100827.25
2023-02-24T07:34:46.594Z,100836.06
2023-02-24T07:37:20.501Z,100832.69
2023-02-24T07:39:53.280Z,100834.44
2023-02-24T07:42:26.399Z,100843.06
2023-02-24T07:44:59.039Z,100847.50
2023-02-24T07:47:32.849Z,100845.81
2023-02-24T07:50:10.785Z,100841.56
2023-02-24T07:52:43.476Z,100837.09
2023-02-24T07:55:17.018Z,100838.03
2023-02-24T07:57:49.570Z,100830.22
2023-02-24T08:00:28.145Z,100821.47
2023-02-24T08:03:01.411Z,100816.28
2023-02-24T08:05:34.486Z,100806.78
2023-02-24T08:08:07.132Z,100795.50
2023-02-24T08:10:40.958Z,100793.75
2023-02-24T08:13:13.617Z,100794.59
2023-02-24T08:15:49.317Z,100793.72
2023-02-24T08:18:22.021Z,100786.81
2023-02-24T08:21:02.128Z,100775.47
2023-02-24T08:23:44.572Z,100773.66
2023-02-24T08:26:17.288Z,100761.50
2023-02-24T08:28:51.661Z,100778.91
2023-02-24T08:31:25.109Z,100780.69
2023-02-24T08:33:58.202Z,100776.38
2023-02-24T08:36:30.794Z,100761.47
2023-02-24T08:39:03.953Z,100758.00
2023-02-24T08:41:45.630Z,100752.75
2023-02-24T08:44:20.421Z,100753.69
2023-02-24T08:46:55.186Z,100751.91
2023-02-24T08:49:28.326Z,100761.50
2023-02-24T08:52:07.208Z,100752.81
2023-02-24T08:54:48.115Z,100744.94
2023-02-24T08:57:20.930Z,100743.19
2023-02-24T08:59:57.702Z,100738.81
2023-02-24T09:02:30.343Z,100737.94
2023-02-24T09:05:12.469Z,100721.28
2023-02-24T09:07:54.713Z,100716.03
2023-02-24T09:10:28.527Z,100707.28
2023-02-24T09:13:08.655Z,100709.03
2023-02-24T09:15:44.414Z,100709.97
2023-02-24T09:18:18.636Z,100697.66
2023-02-24T09:21:15.949Z,100704.69
2023-02-24T09:23:48.725Z,100689.81
2023-02-24T09:26:21.970Z,100672.28
2023-02-24T09:28:57.532Z,100674.88
2023-02-24T09:31:40.790Z,100668.72
2023-02-24T09:34:18.538Z,100659.06
2023-02-24T09:37:03.024Z,100666.00
2023-02-24T09:39:55.609Z,100669.53
2023-02-24T09:42:46.290Z,100666.94
2023-02-24T09:45:33.479Z,100663.44
2023-02-24T09:48:24.546Z,100659.81
2023-02-24T09:51:05.173Z,100654.50
2023-02-24T09:53:49.135Z,100652.88
2023-02-24T09:56:37.253Z,100638.75
2023-02-24T09:59:34.602Z,100631.78
2023-02-24T10:02:44.202Z,100636.28
2023-02-24T10:05:38.479Z,100628.16
2023-02-24T10:08:25.349Z,100627.41
2023-02-24T10:11:07.086Z,100627.31
2023-02-24T10:13:53.719Z,100625.56
2023-02-24T10:16:41.396Z,100625.69
2023-02-24T10:19:30.675Z,100623.78
2023-02-24T10:22:27.638Z,100625.72
2023-02-24T10:25:36.107Z,100628.25
2023-02-24T10:28:52.058Z,100624.84
2023-02-24T10:31:41.749Z,100609.97
2023-02-24T10:34:20.521Z,100606.47
2023-02-24T10:36:57.600Z,100610.00
2023-02-24T10:39:33.299Z,100602.94
2023-02-24T10:42:18.182Z,100604.47
2023-02-24T10:45:02.705Z,100605.31
2023-02-24T10:47:35.773Z,100598.19
2023-02-24T10:50:26.585Z,100600.09
2023-02-24T10:53:10.563Z,100589.69
2023-02-24T10:55:47.706Z,100592.97
2023-02-24T10:59:06.729Z,100579.72
2023-02-24T11:01:54.694Z,100578.06
2023-02-24T11:05:04.287Z,100585.13
2023-02-24T11:07:53.862Z,100580.56
2023-02-24T11:10:32.289Z,100575.34
2023-02-24T11:13:24.248Z,100574.34
2023-02-24T11:16:15.505Z,100564.88
2023-02-24T11:18:51.342Z,100563.09
2023-02-24T11:21:27.732Z,100561.34
2023-02-24T11:24:02.656Z,100552.75
2023-02-24T11:26:41.617Z,100547.44
2023-02-24T11:29:42.255Z,100545.66
2023-02-24T11:32:20.520Z,100535.88
2023-02-24T11:35:01.549Z,100529.03
2023-02-24T11:37:45.379Z,100535.09
2023-02-24T11:40:25.714Z,100529.06
2023-02-24T11:43:14.118Z,100523.03
2023-02-24T11:45:57.008Z,100528.44
2023-02-24T11:48:38.988Z,100516.91
2023-02-24T11:51:18.249Z,100513.41
2023-02-24T11:54:04.146Z,100502.69
2023-02-24T11:57:00.545Z,100508.69
2023-02-24T11:59:59.858Z,100501.88
2023-02-24T12:03:43.217Z,100514.38
2023-02-24T12:06:27.993Z,100494.75
2023-02-24T12:09:14.364Z,100491.44
2023-02-24T12:12:05.170Z,100502.19
2023-02-24T12:14:59.439Z,100491.66
2023-02-24T12:17:38.395Z,100493.47
2023-02-24T12:20:52.340Z,100488.19
2023-02-24T12:23:45.705Z,100469.16
2023-02-24T12:26:42.792Z,100470.06
2023-02-24T12:29:52.472Z,100473.47
2023-02-24T12:32:51.684Z,100467.31
2023-02-24T12:36:03.068Z,100453.31
2023-02-24T12:39:00.623Z,100460.16
2023-02-24T12:41:48.145Z,100449.69
2023-02-24T12:44:47.170Z,100447.03
2023-02-24T12:47:39.044Z,100441.06
2023-02-24T12:50:29.203Z,100426.84
2023-02-24T12:53:34.565Z,100434.81
2023-02-24T12:56:35.397Z,100420.69
2023-02-24T12:59:16.434Z,100422.47
2023-02-24T13:02:09.751Z,100430.50
2023-02-24T13:04:59.519Z,100425.38
2023-02-24T13:08:00.035Z,100424.44
2023-02-24T13:11:09.871Z,100417.56
2023-02-24T13:14:02.675Z,100415.66
2023-02-24T13:16:36.532Z,100403.25
2023-02-24T13:19:30.341Z,100398.91
2023-02-24T13:22:12.022Z,100392.91
2023-02-24T13:25:08.219Z,100398.06
2023-02-24T13:27:53.950Z,100396.25
2023-02-24T13:30:41.795Z,100400.91
2023-02-24T13:33:17.634Z,100390.47
2023-02-24T13:36:12.922Z,100376.25
2023-02-24T13:38:50.847Z,100368.47
2023-02-24T13:41:38.481Z,100357.91
2023-02-24T13:44:29.929Z,100366.69
2023-02-24T13:47:37.854Z,100370.25
2023-02-24T13:50:36.220Z,100375.50
2023-02-24T13:53:47.323Z,100361.28
2023-02-24T13:56:26.896Z,100361.50
2023-02-24T13:59:30.751Z,100346.28
2023-02-24T14:02:18.066Z,100347.19
2023-02-24T14:04:54.861Z,100349.72
2023-02-24T14:07:39.579Z,100351.25
2023-02-24T14:10:27.312Z,100340.63
2023-02-24T14:13:17.617Z,100332.56
2023-02-24T14:15:50.763Z,100331.56
2023-02-24T14:18:27.631Z,100328.03
2023-02-24T14:21:00.196Z,100324.13
2023-02-24T14:23:34.800Z,100328.03
2023-02-24T14:26:18.543Z,100323.47
2023-02-24T14:29:00.722Z,100325.22
2023-02-24T14:31:33.499Z,100310.13
2023-02-24T14:34:09.519Z,100326.66
2023-02-24T14:36:45.672Z,100313.16
2023-02-24T14:39:26.855Z,100313.84
2023-02-24T14:42:09.512Z,100312.56
2023-02-24T14:44:47.027Z,100327.56
2023-02-24T14:47:24.612Z,100311.97
2023-02-24T14:50:02.504Z,100312.75
2023-02-24T14:52:53.768Z,100315.75
2023-02-24T14:55:41.436Z,100313.97
2023-02-24T14:58:30.334Z,100302.94
2023-02-24T15:01:22.700Z,100311.91
2023-02-24T15:04:10.134Z,100312.41
2023-02-24T15:06:44.074Z,100307.66
2023-02-24T15:09:24.301Z,100299.03
2023-02-24T15:11:57.031Z,100290.81
2023-02-24T15:14:31.972Z,100290.13
2023-02-24T15:17:16.758Z,100288.69
2023-02-24T15:19:54.622Z,100293.06
2023-02-24T15:22:34.889Z,100292.59
2023-02-24T15:25:43.518Z,100277.97
2023-02-24T15:28:34.707Z,100291.66
2023-02-24T15:31:21.359Z,100305.94
2023-02-24T15:34:02.157Z,100303.63
2023-02-24T15:36:36.706Z,100292.63
2023-02-24T15:39:23.173Z,100302.38
2023-02-24T15:42:23.442Z,100307.91
2023-02-24T15:44:59.700Z,100311.63
2023-02-24T15:47:46.172Z,100302.78
2023-02-24T15:50:18.753Z,100288.84
2023-02-24T15:52:51.535Z,100290.91
2023-02-24T15:55:25.875Z,100291.72
2023-02-24T15:58:03.354Z,100292.69
2023-02-24T16:00:35.927Z,100288.22
2023-02-24T16:03:08.601Z,100275.97
2023-02-24T16:05:41.227Z,100279.34
2023-02-24T16:08:19.628Z,100283.84
2023-02-24T16:10:53.849Z,100277.84
2023-02-24T16:13:27.428Z,100274.41
2023-02-24T16:16:00.148Z,100279.66
2023-02-24T16:18:33.533Z,100288.47
2023-02-24T16:21:06.755Z,100280.56
2023-02-24T16:23:40.683Z,100291.09
2023-02-24T16:26:21.185Z,100277.91
2023-02-24T16:28:57.430Z,100271.84
2023-02-24T16:31:30.587Z,100277.91
2023-02-24T16:34:04.659Z,100289.25
2023-02-24T16:36:37.378Z,100291.00
2023-02-24T16:39:13.930Z,100281.47
2023-02-24T16:41:47.292Z,100272.81
2023-02-24T16:44:19.937Z,100279.88
2023-02-24T16:46:52.475Z,100275.44
2023-02-24T16:49:25.449Z,100288.72
2023-02-24T16:51:58.102Z,100291.31
2023-02-24T16:54:30.753Z,100295.72
2023-02-24T16:57:03.426Z,100312.41
2023-02-24T16:59:36.010Z,100295.75
2023-02-24T17:02:22.894Z,100302.81
2023-02-24T17:04:55.525Z,100307.25
2023-02-24T17:07:28.059Z,100298.50
2023-02-24T17:10:00.614Z,100302.97
2023-02-24T17:12:33.238Z,100308.19
2023-02-24T17:15:06.921Z,100316.91
2023-02-24T17:17:39.521Z,100313.56
2023-02-24T17:20:15.915Z,100317.81
2023-02-24T17:22:48.705Z,100314.44
2023-02-24T17:25:28.086Z,100324.81
2023-02-24T17:28:01.274Z,100324.00
2023-02-24T17:30:35.902Z,100331.06
2023-02-24T17:33:08.721Z,100346.81
2023-02-24T17:35:47.004Z,100344.97
2023-02-24T17:38:23.251Z,100339.66
2023-02-24T17:40:57.579Z,100356.25
2023-02-24T17:43:30.211Z,100356.28
2023-02-24T17:46:05.158Z,100357.09
2023-02-24T17:48:39.529Z,100358.88
2023-02-24T17:51:17.758Z,100342.41
2023-02-24T17:53:50.389Z,100352.72
2023-02-24T17:56:23.408Z,100354.63
2023-02-24T17:58:58.916Z,100368.63
2023-02-24T18:01:31.621Z,100377.41
2023-02-24T18:04:04.239Z,100379.16
2023-02-24T18:06:36.830Z,100385.38
2023-02-24T18:09:09.696Z,100374.81
2023-02-24T18:11:45.723Z,100375.75
2023-02-24T18:14:18.565Z,100380.09
2023-02-24T18:16:51.171Z,100369.47
2023-02-24T18:19:24.475Z,100371.47
2023-02-24T18:21:57.026Z,100371.44
2023-02-24T18:24:29.523Z,100366.25
2023-02-24T18:27:03.147Z,100376.81
2023-02-24T18:29:35.701Z,100382.81
2023-02-24T18:32:08.704Z,100381.13
2023-02-24T18:34:41.449Z,100395.16
2023-02-24T18:37:14.081Z,100391.66
2023-02-24T18:39:46.731Z,100409.03
2023-02-24T18:42:19.400Z,100395.97
2023-02-24T18:44:52.107Z,100396.00
2023-02-24T18:47:24.813Z,100403.84
2023-02-24T18:49:57.406Z,100406.31
2023-02-24T18:52:29.950Z,100405.50
2023-02-24T18:55:02.488Z,100412.56
2023-02-24T18:57:35.087Z,100403.84
2023-02-24T19:00:09.001Z,100403.84
2023-02-24T19:02:41.674Z,100416.06
2023-02-24T19:05:14.239Z,100402.84
2023-02-24T19:07:46.782Z,100399.38
2023-02-24T19:10:19.399Z,100414.19
2023-02-24T19:12:52.079Z,100420.34
2023-02-24T19:15:24.912Z,100420.38
2023-02-24T19:17:57.607Z,100422.00
2023-02-24T19:20:30.660Z,100424.69
2023-02-24T19:23:03.372Z,100425.53
2023-02-24T19:25:36.758Z,100423.81
2023-02-24T19:28:09.653Z,100422.00
2023-02-24T19:30:42.380Z,100412.50
2023-02-24T19:33:15.152Z,100413.28
2023-02-24T19:35:48.585Z,100416.00
2023-02-24T19:38:22.088Z,100415.88
2023-02-24T19:40:59.046Z,100416.06
2023-02-24T19:43:31.672Z,100411.69
2023-02-24T19:46:10.067Z,100410.84
2023-02-24T19:48:43.368Z,100423.09
2023-02-24T19:51:23.260Z,100424.81
2023-02-24T19:53:59.955Z,100431.88
2023-02-24T19:56:36.646Z,100425.72
2023-02-24T19:59:11.302Z,100431.00
2023-02-24T20:01:44.267Z,100433.63
2023-02-24T20:04:17.351Z,100434.53
2023-02-24T20:06:50.341Z,100434.56
2023-02-24T20:09:23.087Z,100439.81
2023-02-24T20:11:57.298Z,100429.31
2023-02-24T20:14:30.008Z,100435.47
2023-02-24T20:17:02.730Z,100438.97
2023-02-24T20:19:35.554Z,100445.94
2023-02-24T20:22:08.059Z,100451.19
2023-02-24T20:24:40.656Z,100449.44
2023-02-24T20:27:13.704Z,100454.69
2023-02-24T20:29:47.447Z,100450.34
2023-02-24T20:32:20.163Z,100440.75
2023-02-24T20:34:52.902Z,100457.31
2023-02-24T20:37:25.694Z,100460.84
2023-02-24T20:39:58.300Z,100459.06
2023-02-24T20:42:30.797Z,100455.59
2023-02-24T20:45:03.761Z,100459.94
2023-02-24T20:47:36.284Z,100451.22
2023-02-24T20:50:09.479Z,100453.84
2023-02-24T20:52:42.047Z,100452.97
2023-02-24T20:55:14.860Z,100448.59
2023-02-24T20:57:47.992Z,100452.97
2023-02-24T21:00:21.035Z,100477.44
2023-02-24T21:02:53.700Z,100480.03
2023-02-24T21:05:27.623Z,100485.25
2023-02-24T21:08:00.280Z,100487.03
2023-02-24T21:10:32.934Z,100499.25
2023-02-24T21:13:08.282Z,100495.75
2023-02-24T21:15:40.914Z,100487.91
2023-02-24T21:18:13.640Z,100498.41
2023-02-24T21:20:47.209Z,100482.69
2023-02-24T21:23:21.441Z,100486.16
2023-02-24T21:25:54.761Z,100493.16
2023-02-24T21:28:27.403Z,100490.53
2023-02-24T21:31:00.334Z,100496.66
2023-02-24T21:33:33.125Z,100495.75
2023-02-24T21:36:09.790Z,100492.25
2023-02-24T21:38:42.416Z,100494.00
2023-02-24T21:41:16.367Z,100493.16
2023-02-24T21:43:54.843Z,100487.91
2023-02-24T21:46:28.564Z,100496.63
2023-02-24T21:49:01.598Z,100506.25
2023-02-24T21:51:34.228Z,100504.50
2023-02-24T21:54:08.731Z,100505.38
2023-02-24T21:56:41.892Z,100508.00
2023-02-24T21:59:14.570Z,100503.63
2023-02-24T22:01:47.284Z,100508.88
2023-02-24T22:04:21.333Z,100508.84
2023-02-24T22:06:53.953Z,100512.38
2023-02-24T22:09:26.709Z,100516.72
2023-02-24T22:11:59.328Z,100514.97
2023-02-24T22:14:31.953Z,100513.25
2023-02-24T22:17:04.629Z,100511.50
2023-02-24T22:19:37.201Z,100517.63
2023-02-24T22:22:09.863Z,100511.47
2023-02-24T22:24:42.949Z,100513.22
2023-02-24T22:27:15.524Z,100521.13
2023-02-24T22:29:48.628Z,100528.09
2023-02-24T22:32:21.514Z,100524.59
2023-02-24T22:34:54.503Z,100527.22
2023-02-24T22:37:27.858Z,100525.47
2023-02-24T22:40:00.501Z,100504.50
2023-02-24T22:42:33.070Z,100515.88
2023-02-24T22:45:07.079Z,100511.47
2023-02-24T22:47:39.640Z,100513.25
2023-02-24T22:50:12.311Z,100515.88
2023-02-24T22:52:45.011Z,100510.59
2023-02-24T22:55:19.607Z,100503.59
2023-02-24T22:57:52.217Z,100513.25
2023-02-24T23:00:26.322Z,100512.38
2023-02-24T23:02:58.896Z,100514.09
2023-02-24T23:05:31.523Z,100526.31
2023-02-24T23:08:07.520Z,100520.19
2023-02-24T23:10:40.024Z,100525.44
2023-02-24T23:13:12.604Z,100533.31
2023-02-24T23:15:45.349Z,100527.19
2023-02-24T23:18:17.884Z,100529.78
2023-02-24T23:20:59.552Z,100534.19
2023-02-24T23:23:32.641Z,100542.91
2023-02-24T23:26:06.430Z,100530.66
2023-02-24T23:28:39.487Z,100535.03
2023-02-24T23:31:19.826Z,100541.13
2023-02-24T23:33:54.883Z,100531.56
2023-02-24T23:36:27.748Z,100530.63
2023-02-24T23:39:00.611Z,100532.44
2023-02-24T23:41:38.839Z,100532.41
2023-02-24T23:44:12.396Z,100539.38
2023-02-24T23:46:45.450Z,100550.69
2023-02-24T23:49:18.085Z,100537.56
2023-02-24T23:51:50.708Z,100545.50
2023-02-24T23:54:23.341Z,100549.84
2023-02-24T23:56:56.937Z,100550.63
2023-02-24T23:59:29.429Z,100549.75
